Fernandina Beach, Florida
Current Conditions -  °F | °C
As of 4:35 AM on Friday 28 Nov 2014 (Local Time) from KFHB Reporting Station
Clear Clear  
Wind Chill: 38°   Ceiling: Unl
Heat Index: 45°   Visibility: 10mi
Dew Point: 32°   Wind: 14mph
Humidity: 61%   Direction: 330°NNW
Pressure: 30.3"   Gusts: 20mph
Location:  30.67°N, 81.46°W
Report Text: KFHB 280935Z AUTO 33012G17KT 10SM CLR 07/00 A3030 RMK AO1
Loading
Personal Weather Stations






























Interactive Weather Map New forecast layout! Learn more

10-Day Weather Forecast

Advertisements
Track Severe Weather on mobile